Time;durP1;ratioP1;P1;durP2;ratioP2;P2;SDS_P1;SDS_P2;PMS_P1;PMS_P2;Temp;Humidity;BMP_temperature;BMP_pressure;BME280_temperature;BME280_humidity;BME280_pressure;Samples;Min_cycle;Max_cycle;Signal;HPM_P1;HPM_P2
2021/12/13 00:01:18;;;;;;;14.38;3.15;;;;;;;23.30;48.77;100133.66;7310599;19;132163;-39
2021/12/13 00:03:56;;;;;;;19.95;3.97;;;;;;;22.97;49.11;100142.66;7310338;19;129307;-39
2021/12/13 00:06:29;;;;;;;10.18;2.05;;;;;;;22.87;49.47;100135.75;7310218;19;154619;-35
2021/12/13 00:08:59;;;;;;;14.50;3.15;;;;;;;22.92;49.03;100133.56;7311835;19;128899;-37
2021/12/13 00:11:31;;;;;;;17.40;3.15;;;;;;;22.95;49.10;100122.81;7311037;19;130896;-37
2021/12/13 00:14:10;;;;;;;21.50;4.47;;;;;;;23.14;48.69;100138.56;7310962;19;129639;-36
2021/12/13 00:16:40;;;;;;;8.93;2.40;;;;;;;23.25;48.37;100135.81;7311762;19;129499;-38
2021/12/13 00:19:14;;;;;;;9.25;2.35;;;;;;;23.44;48.00;100135.84;7311391;19;129479;-37
2021/12/13 00:21:44;;;;;;;14.23;2.75;;;;;;;23.48;48.04;100126.75;7311420;19;130663;-38
2021/12/13 00:24:34;;;;;;;14.65;2.97;;;;;;;23.66;47.54;100134.72;7306842;19;130475;-38
2021/12/13 00:27:07;;;;;;;17.35;3.40;;;;;;;23.80;47.26;100143.00;7311761;19;129642;-38
2021/12/13 00:29:44;;;;;;;15.43;2.97;;;;;;;23.84;47.07;100143.53;7311677;19;129749;-37
2021/12/13 00:32:20;;;;;;;14.00;2.70;;;;;;;23.87;47.24;100138.00;7309824;19;129800;-37
2021/12/13 00:34:53;;;;;;;15.90;2.88;;;;;;;23.75;46.64;100126.84;7309804;19;130918;-38
2021/12/13 00:37:35;;;;;;;11.13;2.28;;;;;;;23.76;47.56;100133.75;7312820;19;129214;-37
2021/12/13 00:40:07;;;;;;;12.73;2.75;;;;;;;23.70;47.07;100136.94;7311980;19;129444;-38
2021/12/13 00:42:45;;;;;;;9.85;2.17;;;;;;;23.65;47.17;100133.88;7310581;19;130325;-37
2021/12/13 00:45:16;;;;;;;13.57;2.55;;;;;;;23.55;47.77;100133.06;7308131;19;129693;-38
2021/12/13 00:47:43;;;;;;;9.77;2.22;;;;;;;23.51;47.85;100131.72;7315030;19;129333;-39
2021/12/13 00:50:13;;;;;;;11.77;2.22;;;;;;;23.46;47.66;100138.31;7318971;19;130336;-38
2021/12/13 00:52:42;;;;;;;14.38;2.78;;;;;;;23.39;48.67;100140.69;7317503;19;130278;-36
2021/12/13 00:55:17;;;;;;;9.25;2.15;;;;;;;23.36;48.19;100154.06;7315168;19;129465;-38
2021/12/13 00:57:46;;;;;;;20.75;3.55;;;;;;;23.30;48.52;100149.41;7317315;19;129682;-37
2021/12/13 01:00:29;;;;;;;11.55;2.17;;;;;;;23.15;49.67;100130.53;7317283;19;129293;-36
2021/12/13 01:03:09;;;;;;;13.63;2.60;;;;;;;23.19;48.77;100152.09;7316729;19;129730;-36
2021/12/13 01:05:48;;;;;;;15.52;2.85;;;;;;;23.16;49.65;100152.38;7313835;19;129299;-37
2021/12/13 01:08:51;;;;;;;13.77;2.42;;;;;;;23.08;49.82;100139.94;7316380;19;130360;-39
2021/12/13 01:11:35;;;;;;;10.88;2.00;;;;;;;23.06;49.00;100156.75;7315233;19;128936;-36
2021/12/13 01:14:39;;;;;;;18.73;3.53;;;;;;;23.03;50.13;100162.28;7314547;19;129530;-37
2021/12/13 01:17:26;;;;;;;15.70;2.85;;;;;;;23.01;50.75;100165.03;7315743;19;130338;-37
2021/12/13 01:20:00;;;;;;;11.75;2.60;;;;;;;22.99;50.62;100160.91;7315566;19;128854;-36
2021/12/13 01:25:24;;;;;;;13.27;2.45;;;;;;;22.93;51.02;100169.31;7312432;19;129158;-37
2021/12/13 01:27:55;;;;;;;16.52;2.78;;;;;;;22.94;50.13;100163.13;7315420;19;130357;-38
2021/12/13 01:30:29;;;;;;;21.33;3.83;;;;;;;22.92;50.23;100165.03;7314706;19;129009;-38
2021/12/13 01:32:58;;;;;;;15.02;2.67;;;;;;;22.86;49.92;100182.13;7315349;19;129025;-36
2021/12/13 01:35:32;;;;;;;17.55;2.78;;;;;;;22.88;50.11;100168.88;7312349;19;129491;-37
2021/12/13 01:38:03;;;;;;;18.70;3.30;;;;;;;22.95;49.37;100175.25;7315385;19;129364;-35
2021/12/13 01:40:35;;;;;;;19.38;3.90;;;;;;;23.03;49.46;100180.66;7313748;19;128913;-37
2021/12/13 01:43:06;;;;;;;20.52;3.42;;;;;;;23.18;49.38;100179.28;7315441;19;129922;-35
2021/12/13 01:45:34;;;;;;;9.13;1.95;;;;;;;23.33;48.73;100177.13;7310809;19;157246;-37
2021/12/13 01:48:00;;;;;;;17.75;3.13;;;;;;;23.40;48.86;100170.38;7316364;19;129344;-38
2021/12/13 01:50:41;;;;;;;13.85;2.97;;;;;;;23.52;47.80;100167.47;7312562;19;129021;-36
2021/12/13 01:53:07;;;;;;;16.23;3.28;;;;;;;23.68;48.12;100170.41;7314007;19;128857;-39
2021/12/13 01:55:37;;;;;;;15.07;2.63;;;;;;;23.78;47.26;100171.22;7313248;19;129423;-37
2021/12/13 02:01:09;;;;;;;16.05;2.63;;;;;;;23.92;46.78;100167.31;7314786;19;129067;-39
2021/12/13 02:03:43;;;;;;;17.90;3.08;;;;;;;23.90;46.94;100164.81;7312390;19;129352;-36
2021/12/13 02:06:09;;;;;;;16.73;2.78;;;;;;;23.87;46.88;100186.13;7313297;19;158427;-38
2021/12/13 02:08:35;;;;;;;13.67;2.47;;;;;;;23.82;47.63;100188.34;7313955;19;130327;-37
2021/12/13 02:11:01;;;;;;;11.53;2.43;;;;;;;23.75;47.70;100176.72;7315006;19;129903;-37
2021/12/13 02:13:37;;;;;;;14.53;2.53;;;;;;;23.70;47.41;100178.13;7315148;19;129458;-37
2021/12/13 02:18:55;;;;;;;16.42;2.53;;;;;;;23.42;48.48;100169.25;7312903;19;129218;-37
2021/12/13 02:21:34;;;;;;;12.27;1.95;;;;;;;23.41;48.60;100179.91;7313708;19;129094;-35
2021/12/13 02:24:08;;;;;;;21.88;3.50;;;;;;;23.38;49.26;100182.81;7312462;19;129497;-37
2021/12/13 02:26:37;;;;;;;18.63;3.33;;;;;;;23.32;48.79;100184.16;7313523;19;131677;-36
2021/12/13 02:29:16;;;;;;;16.05;2.58;;;;;;;23.25;49.18;100177.81;7314711;19;129944;-39
2021/12/13 02:31:41;;;;;;;15.55;2.63;;;;;;;23.20;49.15;100174.75;7313047;19;129301;-35
2021/12/13 02:34:10;;;;;;;10.40;2.08;;;;;;;23.17;49.41;100177.66;7313229;19;129211;-37
2021/12/13 02:36:43;;;;;;;17.80;2.97;;;;;;;23.13;50.68;100178.88;7314593;19;129309;-38
2021/12/13 02:39:15;;;;;;;15.85;2.70;;;;;;;23.10;49.84;100179.16;7312760;19;130888;-35
2021/12/13 02:41:42;;;;;;;14.80;2.47;;;;;;;23.07;49.80;100180.22;7313665;19;129436;-35
2021/12/13 02:44:16;;;;;;;12.60;2.25;;;;;;;23.05;50.03;100173.47;7311140;19;129352;-33
2021/12/13 02:46:42;;;;;;;13.38;2.17;;;;;;;22.92;50.09;100155.34;7313950;19;130047;-37
2021/12/13 02:49:11;;;;;;;18.65;2.92;;;;;;;22.94;50.57;100165.72;7312578;19;129273;-36
2021/12/13 02:51:43;;;;;;;13.25;2.50;;;;;;;22.91;49.55;100171.22;7314140;19;129435;-36
2021/12/13 02:54:18;;;;;;;13.18;2.45;;;;;;;22.94;49.71;100171.78;7312302;19;128857;-34
2021/12/13 02:56:49;;;;;;;12.43;2.05;;;;;;;22.98;49.98;100180.22;7312961;19;130221;-38
2021/12/13 02:59:15;;;;;;;11.95;2.08;;;;;;;23.05;49.79;100187.44;7313423;19;129598;-36
2021/12/13 03:01:45;;;;;;;11.53;1.83;;;;;;;23.10;49.95;100187.03;7311950;19;129450;-38
2021/12/13 03:04:15;;;;;;;15.70;2.80;;;;;;;23.22;49.16;100186.75;7311104;19;129288;-38
2021/12/13 03:06:48;;;;;;;12.77;2.03;;;;;;;23.32;49.16;100184.16;7312544;19;129227;-38
2021/12/13 03:09:21;;;;;;;11.88;2.15;;;;;;;23.43;48.82;100191.09;7313324;19;129758;-38
2021/12/13 03:11:50;;;;;;;11.50;1.98;;;;;;;23.54;48.61;100189.16;7310370;19;129087;-38
2021/12/13 03:14:22;;;;;;;14.85;2.45;;;;;;;23.66;48.42;100188.06;7311216;19;128821;-38
2021/12/13 03:17:01;;;;;;;16.73;2.50;;;;;;;23.77;47.84;100189.72;7313152;19;130380;-38
2021/12/13 03:19:38;;;;;;;13.93;2.17;;;;;;;23.76;47.30;100167.06;7312152;19;130143;-38
2021/12/13 03:22:35;;;;;;;12.48;2.30;;;;;;;23.93;47.82;100187.38;7313180;19;129959;-38
2021/12/13 03:25:31;;;;;;;11.98;2.22;;;;;;;23.91;47.45;100178.78;7308957;19;129278;-36
2021/12/13 03:28:28;;;;;;;11.60;2.17;;;;;;;23.86;47.67;100188.88;7312785;19;130295;-38
2021/12/13 03:30:59;;;;;;;15.13;2.50;;;;;;;23.76;48.25;100188.91;7311182;19;130850;-37
2021/12/13 03:33:32;;;;;;;14.63;2.40;;;;;;;23.68;47.65;100187.94;7312442;19;129368;-38
2021/12/13 03:36:00;;;;;;;19.15;3.05;;;;;;;23.61;47.89;100185.03;7311716;19;129330;-38
2021/12/13 03:38:32;;;;;;;15.77;2.72;;;;;;;23.50;48.12;100181.72;7312662;19;129616;-36
2021/12/13 03:41:00;;;;;;;15.27;2.50;;;;;;;23.48;48.88;100189.72;7311785;19;129565;-36
2021/12/13 03:43:44;;;;;;;14.20;2.35;;;;;;;23.42;48.70;100187.63;7311662;19;129049;-36
2021/12/13 03:46:13;;;;;;;14.30;2.35;;;;;;;23.35;49.01;100202.28;7312707;19;129336;-33
2021/12/13 03:48:40;;;;;;;13.20;2.33;;;;;;;23.30;49.27;100195.78;7311379;19;130248;-36
2021/12/13 03:51:09;;;;;;;16.83;2.95;;;;;;;23.23;49.61;100205.97;7310993;19;129608;-36
2021/12/13 03:53:37;;;;;;;18.58;2.95;;;;;;;23.26;49.46;100200.44;7310751;19;129228;-36
2021/12/13 03:56:07;;;;;;;15.80;2.75;;;;;;;23.42;48.93;100200.75;7310483;19;129144;-34
2021/12/13 03:58:42;;;;;;;11.85;1.95;;;;;;;23.73;48.13;100199.69;7312316;19;129857;-36
2021/12/13 04:01:11;;;;;;;12.88;2.25;;;;;;;24.27;46.47;100197.28;7309540;19;131683;-37
2021/12/13 04:03:38;;;;;;;9.95;1.85;;;;;;;24.77;45.33;100208.34;7310857;19;129972;-38
2021/12/13 04:06:04;;;;;;;13.30;2.25;;;;;;;25.33;44.50;100206.38;7311661;19;130046;-36
2021/12/13 04:08:30;;;;;;;15.43;2.77;;;;;;;25.96;43.00;100203.66;7310210;19;129574;-36
2021/12/13 04:11:03;;;;;;;19.85;3.15;;;;;;;26.42;42.25;100206.81;7310243;19;133099;-36
2021/12/13 04:13:33;;;;;;;16.33;2.40;;;;;;;26.80;40.95;100211.69;7311134;19;129146;-39
2021/12/13 04:16:48;;;;;;;16.85;2.63;;;;;;;27.11;40.42;100213.75;7310716;19;128890;-37
2021/12/13 04:19:20;;;;;;;10.75;1.77;;;;;;;27.42;39.34;100214.88;7308948;19;129702;-36
2021/12/13 04:22:01;;;;;;;12.57;2.00;;;;;;;27.47;39.31;100212.56;7311023;19;129323;-37
2021/12/13 04:24:32;;;;;;;12.93;2.17;;;;;;;27.51;39.54;100222.63;7317005;19;129190;-35
2021/12/13 04:27:04;;;;;;;15.13;2.53;;;;;;;27.57;39.61;100219.34;7318091;19;129028;-37
2021/12/13 04:29:32;;;;;;;14.93;2.75;;;;;;;27.44;39.30;100220.78;7316346;19;130913;-37
2021/12/13 04:32:09;;;;;;;16.88;2.65;;;;;;;27.30;39.82;100229.34;7316956;19;131661;-38
2021/12/13 04:34:41;;;;;;;16.50;2.43;;;;;;;27.08;40.75;100229.91;7315258;19;128969;-37
2021/12/13 04:37:10;;;;;;;16.85;3.25;;;;;;;26.90;40.52;100228.22;7317339;19;130305;-37
2021/12/13 04:39:37;;;;;;;12.77;2.00;;;;;;;26.66;40.98;100219.31;7317253;19;129424;-38
2021/12/13 04:42:07;;;;;;;15.20;2.50;;;;;;;26.41;42.24;100220.97;7316588;19;129322;-35
2021/12/13 04:44:36;;;;;;;12.48;2.17;;;;;;;26.20;42.54;100225.78;7314901;19;129004;-35
2021/12/13 04:47:09;;;;;;;5.72;1.35;;;;;;;25.91;43.03;100227.84;7316954;19;128831;-37
2021/12/13 04:49:40;;;;;;;15.30;2.50;;;;;;;25.72;43.10;100232.44;7317235;19;129568;-33
2021/12/13 04:52:13;;;;;;;20.17;3.10;;;;;;;25.50;43.78;100233.72;7316255;19;129309;-38
2021/12/13 04:54:42;;;;;;;12.48;1.95;;;;;;;25.30;44.08;100237.44;7314512;19;129511;-38
2021/12/13 04:57:08;;;;;;;14.07;2.20;;;;;;;25.06;44.54;100226.59;7316735;19;131390;-34
2021/12/13 04:59:35;;;;;;;17.90;2.93;;;;;;;24.92;45.39;100238.47;7314278;19;130789;-38
2021/12/13 05:02:06;;;;;;;18.50;2.78;;;;;;;24.74;45.78;100242.00;7315918;19;129930;-35
2021/12/13 05:04:32;;;;;;;15.43;2.42;;;;;;;24.64;46.47;100243.78;7314780;19;129947;-39
2021/12/13 05:07:01;;;;;;;14.27;2.87;;;;;;;24.50;46.40;100242.44;7314032;19;130194;-36
2021/12/13 05:09:28;;;;;;;18.20;2.85;;;;;;;24.35;46.54;100249.13;7313126;19;132399;-36
2021/12/13 05:12:15;;;;;;;12.70;2.17;;;;;;;24.13;47.41;100236.31;7315218;19;129702;-37
2021/12/13 05:14:45;;;;;;;13.27;2.13;;;;;;;24.12;47.65;100248.63;7315324;19;130958;-37
2021/12/13 05:17:16;;;;;;;18.40;2.83;;;;;;;24.06;47.94;100243.94;7315965;19;129152;-38
2021/12/13 05:19:46;;;;;;;15.63;2.25;;;;;;;24.00;48.08;100260.22;7316796;19;130306;-37
2021/12/13 05:22:15;;;;;;;14.43;2.38;;;;;;;23.91;48.37;100255.78;7313698;19;131659;-38
2021/12/13 05:24:46;;;;;;;16.10;2.22;;;;;;;23.83;48.17;100258.25;7314081;19;130248;-35
2021/12/13 05:27:15;;;;;;;18.00;2.95;;;;;;;23.69;48.74;100255.22;7313512;19;128956;-37
2021/12/13 05:29:49;;;;;;;12.35;2.15;;;;;;;23.71;48.50;100262.00;7315299;19;130330;-35
2021/12/13 05:32:20;;;;;;;7.72;1.25;;;;;;;23.64;49.10;100258.25;7315178;19;130303;-38
2021/12/13 05:34:52;;;;;;;6.93;1.38;;;;;;;23.54;49.14;100257.41;7311963;19;129492;-39
2021/12/13 05:37:19;;;;;;;14.35;2.05;;;;;;;23.52;49.41;100264.59;7314704;19;128855;-38
2021/12/13 05:40:01;;;;;;;16.55;2.38;;;;;;;23.44;49.25;100259.19;7314249;19;130360;-37
2021/12/13 05:42:43;;;;;;;13.43;2.60;;;;;;;23.40;49.34;100270.94;7314679;19;130349;-38
2021/12/13 05:45:13;;;;;;;19.98;2.92;;;;;;;23.37;49.35;100276.44;7312410;19;130202;-36
2021/12/13 05:47:52;;;;;;;14.43;2.10;;;;;;;23.33;49.37;100264.56;7313560;19;129545;-38
2021/12/13 05:50:26;;;;;;;18.13;2.67;;;;;;;23.41;49.38;100277.84;7314270;19;129379;-36
2021/12/13 05:53:01;;;;;;;9.82;1.83;;;;;;;23.49;49.17;100288.47;7312649;19;129046;-37
2021/12/13 05:55:27;;;;;;;19.02;2.78;;;;;;;23.63;48.33;100280.25;7312117;19;131437;-37
2021/12/13 05:57:53;;;;;;;14.15;2.20;;;;;;;23.77;48.81;100285.06;7313584;19;129031;-38
2021/12/13 06:00:27;;;;;;;15.15;2.03;;;;;;;23.98;47.75;100285.78;7314293;19;131256;-34
2021/12/13 06:03:07;;;;;;;20.23;3.15;;;;;;;24.14;47.89;100272.97;7313442;19;131375;-34
2021/12/13 06:05:43;;;;;;;46.47;8.27;;;;;;;24.32;47.29;100271.28;7292708;19;129748;-36
2021/12/13 06:08:17;;;;;;;11.77;2.03;;;;;;;24.52;46.41;100277.31;7310132;19;129328;-34
2021/12/13 06:11:03;;;;;;;10.55;2.03;;;;;;;24.67;46.50;100280.31;7313435;19;129239;-40
2021/12/13 06:13:43;;;;;;;9.57;1.92;;;;;;;24.82;45.48;100278.91;7313300;19;132407;-37
2021/12/13 06:16:36;;;;;;;16.88;2.40;;;;;;;24.90;45.82;100281.66;7312732;19;143795;-37
2021/12/13 06:19:22;;;;;;;14.52;2.53;;;;;;;25.06;45.25;100281.84;7314454;19;128998;-35
2021/12/13 06:22:03;;;;;;;21.55;3.25;;;;;;;25.21;45.12;100285.66;7311984;19;129888;-37
2021/12/13 06:24:36;;;;;;;13.25;2.05;;;;;;;25.23;44.86;100289.81;7313276;19;129886;-38
2021/12/13 06:27:12;;;;;;;15.88;2.55;;;;;;;25.29;44.52;100288.38;7314428;19;130914;-35
2021/12/13 06:30:02;;;;;;;15.73;2.75;;;;;;;25.33;44.13;100287.97;7312756;19;128972;-37
2021/12/13 06:32:57;;;;;;;14.82;2.55;;;;;;;25.42;44.02;100295.00;7313480;19;129912;-38
2021/12/13 06:35:45;;;;;;;18.35;2.53;;;;;;;25.40;44.15;100291.69;7309668;19;129533;-34
2021/12/13 06:38:28;;;;;;;13.98;2.33;;;;;;;25.46;44.26;100300.81;7313510;19;128985;-35
2021/12/13 06:40:59;;;;;;;19.95;2.88;;;;;;;25.46;43.58;100295.53;7311707;19;129590;-41
2021/12/13 06:43:43;;;;;;;17.65;2.67;;;;;;;25.44;43.86;100294.84;7312567;19;130189;-37
2021/12/13 06:46:20;;;;;;;13.68;2.17;;;;;;;25.42;43.97;100304.72;7307645;19;132310;-35
2021/12/13 06:48:49;;;;;;;13.57;1.83;;;;;;;25.33;44.09;100289.75;7311195;19;154587;-32
2021/12/13 06:51:18;;;;;;;14.77;2.50;;;;;;;25.43;44.34;100301.94;7311340;19;129877;-38
2021/12/13 06:54:03;;;;;;;20.85;3.53;;;;;;;25.35;44.67;100293.13;7310513;19;130276;-33
2021/12/13 06:56:32;;;;;;;11.23;1.90;;;;;;;25.33;44.63;100306.41;7311031;19;130348;-38
2021/12/13 06:58:59;;;;;;;21.95;3.20;;;;;;;25.27;44.33;100306.16;7311964;19;129164;-35
2021/12/13 07:01:30;;;;;;;18.42;3.13;;;;;;;25.16;44.78;100301.91;7310835;19;128906;-39
2021/12/13 07:04:00;;;;;;;24.10;4.03;;;;;;;25.11;45.37;100311.19;7310783;19;130207;-31
2021/12/13 07:06:27;;;;;;;14.27;2.22;;;;;;;25.05;45.03;100311.78;7310938;19;129333;-34
2021/12/13 07:09:14;;;;;;;20.65;3.28;;;;;;;24.95;45.53;100306.56;7311364;19;129050;-38
2021/12/13 07:11:48;;;;;;;13.38;1.98;;;;;;;24.88;45.94;100315.16;7310251;19;129183;-31
2021/12/13 07:14:15;;;;;;;15.40;2.45;;;;;;;24.76;46.20;100316.31;7309492;19;130787;-34
2021/12/13 07:16:47;;;;;;;11.10;1.75;;;;;;;24.66;46.20;100315.47;7310975;19;129584;-36
2021/12/13 07:19:32;;;;;;;18.85;2.75;;;;;;;24.50;46.28;100321.31;7308486;19;129846;-32
2021/12/13 07:22:05;;;;;;;15.68;2.53;;;;;;;24.42;46.57;100334.34;7308790;19;146975;-36
2021/12/13 07:24:42;;;;;;;18.48;2.88;;;;;;;24.31;46.89;100332.66;7307170;19;130486;-40
2021/12/13 07:27:19;;;;;;;16.15;2.60;;;;;;;24.22;46.95;100338.78;7310654;19;130547;-34
2021/12/13 07:29:55;;;;;;;;;;;;;;;24.14;47.93;100340.44;7311628;19;129281;-35
2021/12/13 07:32:33;;;;;;;17.77;2.67;;;;;;;24.09;48.21;100347.88;7310348;19;129024;-31
2021/12/13 07:35:00;;;;;;;29.55;4.32;;;;;;;24.01;47.94;100340.72;7304160;19;130380;-36
2021/12/13 07:37:39;;;;;;;27.90;3.63;;;;;;;23.96;48.03;100353.41;7306567;19;130471;-34
2021/12/13 07:40:33;;;;;;;21.33;3.50;;;;;;;23.93;48.50;100360.72;7309048;19;131090;-35
2021/12/13 07:43:22;;;;;;;21.33;3.08;;;;;;;23.91;48.10;100360.84;7310157;19;130275;-32
2021/12/13 07:46:11;;;;;;;18.95;2.95;;;;;;;23.84;48.66;100357.09;7301883;19;129695;-40
2021/12/13 07:48:53;;;;;;;113.97;14.52;;;;;;;23.80;48.80;100357.50;7286558;19;130428;-37
2021/12/13 07:51:29;;;;;;;12.82;2.17;;;;;;;23.75;49.15;100364.97;7305342;19;129835;-37
2021/12/13 07:53:57;;;;;;;26.45;4.63;;;;;;;23.74;48.48;100369.38;7309235;19;129306;-36
2021/12/13 07:56:39;;;;;;;16.55;2.70;;;;;;;23.73;49.12;100367.72;7307025;19;159106;-37
2021/12/13 07:59:21;;;;;;;16.77;2.75;;;;;;;23.71;48.45;100364.41;7310676;19;130455;-36
2021/12/13 08:01:56;;;;;;;12.75;2.13;;;;;;;23.72;48.64;100363.41;7309718;19;129290;-36
2021/12/13 08:04:27;;;;;;;13.52;2.25;;;;;;;23.75;48.66;100363.16;7308355;19;130650;-37
2021/12/13 08:06:59;;;;;;;24.73;4.45;;;;;;;23.75;48.57;100371.03;7307948;19;129228;-40
2021/12/13 08:09:28;;;;;;;20.05;2.95;;;;;;;23.77;48.70;100376.97;7299908;19;130998;-34
2021/12/13 08:12:00;;;;;;;17.23;2.63;;;;;;;23.81;48.91;100375.75;7308775;19;130621;-34
2021/12/13 08:14:36;;;;;;;10.15;1.98;;;;;;;23.85;48.02;100369.25;7307481;19;129100;-40
2021/12/13 08:17:16;;;;;;;14.10;2.78;;;;;;;23.94;48.42;100373.69;7309879;19;130166;-39
2021/12/13 08:19:43;;;;;;;20.67;3.47;;;;;;;23.97;47.87;100381.31;7308275;19;130826;-40
2021/12/13 08:22:19;;;;;;;19.40;3.20;;;;;;;24.03;47.98;100380.78;7308399;19;129129;-40
2021/12/13 08:24:53;;;;;;;23.77;3.33;;;;;;;24.13;47.37;100386.88;7304737;19;130061;-35
2021/12/13 08:27:33;;;;;;;13.95;2.33;;;;;;;24.24;47.65;100384.16;7308385;19;129474;-37
2021/12/13 08:30:09;;;;;;;19.42;3.35;;;;;;;24.23;47.23;100386.88;7307109;19;129597;-37
2021/12/13 08:32:36;;;;;;;11.80;2.20;;;;;;;24.34;47.11;100394.66;7307927;19;129206;-38
2021/12/13 08:35:05;;;;;;;20.08;3.25;;;;;;;24.38;47.48;100386.34;7306630;19;129468;-37
2021/12/13 08:37:36;;;;;;;21.58;3.13;;;;;;;24.43;46.56;100394.66;7308127;19;130159;-38
2021/12/13 08:40:19;;;;;;;16.60;2.80;;;;;;;24.48;47.03;100397.69;7308789;19;129319;-37
2021/12/13 08:42:46;;;;;;;12.10;2.03;;;;;;;24.51;46.76;100398.38;7308889;19;129247;-35
2021/12/13 08:45:34;;;;;;;15.60;2.53;;;;;;;24.54;46.73;100395.47;7307950;19;130333;-39
2021/12/13 08:48:16;;;;;;;19.73;3.17;;;;;;;24.61;46.57;100407.09;7304024;19;130245;-39
2021/12/13 08:50:50;;;;;;;17.63;3.20;;;;;;;24.53;46.54;100388.56;7308365;19;130674;-35
2021/12/13 08:53:30;;;;;;;15.18;2.47;;;;;;;24.64;46.19;100396.31;7297251;19;130743;-38
2021/12/13 08:56:01;;;;;;;17.10;2.83;;;;;;;24.68;46.69;100397.69;7304472;19;129073;-38
2021/12/13 08:58:27;;;;;;;19.10;3.08;;;;;;;24.76;46.17;100401.28;7300961;19;130717;-36
2021/12/13 09:01:08;;;;;;;19.52;2.80;;;;;;;24.72;46.38;100409.59;7305107;19;129429;-37
2021/12/13 09:03:41;;;;;;;18.10;2.88;;;;;;;24.72;46.78;100409.59;7308918;19;128869;-36
2021/12/13 09:06:06;;;;;;;15.93;2.92;;;;;;;24.77;46.45;100412.66;7306669;19;129903;-36
2021/12/13 09:08:57;;;;;;;21.45;3.53;;;;;;;24.80;46.14;100428.16;7301125;19;132380;-35
2021/12/13 09:11:38;;;;;;;15.38;2.53;;;;;;;24.83;46.39;100420.81;7314379;19;130948;-37
2021/12/13 09:14:22;;;;;;;20.23;3.50;;;;;;;24.83;45.74;100422.59;7308198;19;129801;-38
2021/12/13 09:16:56;;;;;;;17.58;2.67;;;;;;;24.80;46.19;100422.88;7316295;19;129438;-36
2021/12/13 09:19:29;;;;;;;10.82;1.95;;;;;;;24.90;46.47;100418.44;7315134;19;130233;-38
2021/12/13 09:22:22;;;;;;;19.33;3.03;;;;;;;24.86;45.79;100411.81;7314650;19;131687;-39
2021/12/13 09:24:59;;;;;;;11.95;1.98;;;;;;;24.86;45.82;100406.56;7313165;19;131535;-39
2021/12/13 09:27:36;;;;;;;13.48;2.45;;;;;;;24.83;46.25;100406.81;7313053;19;154331;-39
2021/12/13 09:30:06;;;;;;;14.30;2.57;;;;;;;24.86;46.18;100414.44;7313635;19;130414;-35
2021/12/13 09:32:42;;;;;;;11.52;2.05;;;;;;;24.79;45.81;100397.56;7314483;19;129441;-39
2021/12/13 09:35:26;;;;;;;18.83;3.08;;;;;;;24.71;46.76;100402.69;7313489;19;129976;-39
2021/12/13 09:37:53;;;;;;;22.42;2.95;;;;;;;24.84;46.62;100421.66;7315362;19;129572;-38
2021/12/13 09:40:27;;;;;;;16.83;2.85;;;;;;;24.83;46.42;100423.44;7314287;19;129172;-38
2021/12/13 09:42:56;;;;;;;17.63;2.80;;;;;;;24.79;45.99;100423.88;7314195;19;132431;-34
2021/12/13 09:45:26;;;;;;;17.10;2.67;;;;;;;24.79;46.64;100426.50;7310726;19;129467;-36
2021/12/13 09:47:52;;;;;;;15.45;2.88;;;;;;;24.79;45.95;100422.03;7313487;19;129262;-39
2021/12/13 09:50:22;;;;;;;11.20;2.30;;;;;;;24.77;46.44;100423.16;7314117;19;129157;-37
2021/12/13 09:52:56;;;;;;;11.88;2.13;;;;;;;24.74;46.79;100415.56;7314205;19;130390;-37
2021/12/13 09:55:34;;;;;;;14.60;2.58;;;;;;;24.71;46.47;100414.03;7312834;19;130229;-35
2021/12/13 09:58:07;;;;;;;19.95;3.10;;;;;;;24.73;46.88;100411.25;7312495;19;128990;-38
2021/12/13 10:00:54;;;;;;;14.18;2.38;;;;;;;24.69;46.58;100413.38;7310732;19;131268;-38
2021/12/13 10:03:28;;;;;;;9.87;1.80;;;;;;;24.68;46.56;100413.47;7313061;19;129602;-39
2021/12/13 10:05:58;;;;;;;19.83;3.13;;;;;;;24.69;46.66;100415.16;7308919;19;129113;-36
2021/12/13 10:08:39;;;;;;;11.55;1.95;;;;;;;24.66;46.46;100413.59;7314302;19;131798;-40
2021/12/13 10:11:10;;;;;;;16.55;2.97;;;;;;;24.68;46.29;100413.47;7311942;19;131978;-38
2021/12/13 10:13:39;;;;;;;12.23;2.25;;;;;;;24.56;46.72;100398.81;7313599;19;131890;-37
2021/12/13 10:16:12;;;;;;;13.23;2.53;;;;;;;24.63;46.71;100410.41;7313741;19;129025;-36
2021/12/13 10:18:44;;;;;;;11.18;1.90;;;;;;;24.58;46.71;100402.13;7314841;19;129375;-37
2021/12/13 10:21:14;;;;;;;13.82;2.22;;;;;;;24.59;46.90;100398.53;7311697;19;129609;-40
2021/12/13 10:23:46;;;;;;;19.75;3.17;;;;;;;24.60;46.99;100394.91;7312519;19;131074;-38
2021/12/13 10:26:14;;;;;;;14.38;2.47;;;;;;;24.58;47.13;100396.88;7311178;19;128972;-38
2021/12/13 10:28:55;;;;;;;15.27;2.33;;;;;;;24.57;47.49;100397.81;7312841;19;129368;-36
2021/12/13 10:31:27;;;;;;;12.65;2.30;;;;;;;24.52;47.14;100398.25;7312665;19;130197;-37
2021/12/13 10:33:56;;;;;;;23.08;4.25;;;;;;;24.53;47.16;100396.47;7311327;19;133349;-39
2021/12/13 10:36:21;;;;;;;12.02;2.05;;;;;;;24.51;47.44;100390.50;7312783;19;129472;-35
2021/12/13 10:38:52;;;;;;;14.35;2.38;;;;;;;24.51;46.98;100395.75;7312205;19;129052;-36
2021/12/13 10:41:39;;;;;;;11.15;2.08;;;;;;;24.51;46.82;100401.03;7311982;19;130622;-39
2021/12/13 10:44:09;;;;;;;15.98;2.90;;;;;;;24.48;47.53;100398.69;7311122;19;129216;-39
2021/12/13 10:46:41;;;;;;;14.10;2.67;;;;;;;24.44;47.05;100400.75;7310399;19;129169;-39
2021/12/13 10:49:14;;;;;;;20.98;3.28;;;;;;;24.45;47.02;100403.22;7311467;19;129122;-39
2021/12/13 10:51:43;;;;;;;13.73;2.20;;;;;;;24.47;47.65;100392.56;7311978;19;130074;-38
2021/12/13 10:54:16;;;;;;;14.77;2.53;;;;;;;24.43;47.03;100393.81;7311199;19;130240;-39
2021/12/13 10:56:46;;;;;;;10.98;2.00;;;;;;;24.34;47.45;100377.09;7311888;19;129341;-37
2021/12/13 10:59:18;;;;;;;16.85;2.95;;;;;;;24.35;47.10;100383.16;7312532;19;129797;-37
2021/12/13 11:01:48;;;;;;;13.40;2.55;;;;;;;24.43;47.35;100389.38;7311741;19;129272;-36
2021/12/13 11:04:18;;;;;;;4.80;1.48;;;;;;;24.44;47.65;100388.41;7310878;19;130320;-38
2021/12/13 11:06:46;;;;;;;10.40;1.83;;;;;;;24.40;47.74;100389.66;7310195;19;129083;-37
2021/12/13 11:09:19;;;;;;;12.85;2.38;;;;;;;24.37;47.63;100399.63;7312506;19;129262;-34
2021/12/13 11:11:49;;;;;;;15.63;2.35;;;;;;;24.39;47.22;100384.56;7311994;19;130345;-38
2021/12/13 11:14:20;;;;;;;13.60;2.40;;;;;;;24.36;47.37;100388.28;7308266;19;133740;-37
2021/12/13 11:16:51;;;;;;;16.48;2.70;;;;;;;24.38;47.83;100394.22;7313262;19;128876;-37
2021/12/13 11:19:21;;;;;;;13.63;2.33;;;;;;;24.40;47.20;100384.41;7312207;19;131224;-37
2021/12/13 11:21:52;;;;;;;10.80;2.08;;;;;;;24.38;47.59;100390.75;7311466;19;129219;-35
2021/12/13 11:24:23;;;;;;;12.57;2.33;;;;;;;24.39;47.28;100393.25;7310465;19;130307;-35
2021/12/13 11:26:56;;;;;;;18.58;2.72;;;;;;;24.37;47.23;100400.47;7309995;19;129828;-38
2021/12/13 11:29:23;;;;;;;14.63;2.88;;;;;;;24.38;47.56;100393.41;7310314;19;128951;-38
2021/12/13 11:31:55;;;;;;;16.52;2.65;;;;;;;24.39;47.22;100390.63;7306520;19;130824;-36
2021/12/13 11:34:58;;;;;;;18.05;3.25;;;;;;;24.42;47.60;100389.53;7309805;19;130363;-38
2021/12/13 11:38:05;;;;;;;16.42;2.53;;;;;;;24.37;47.25;100389.94;7312512;19;129162;-39
2021/12/13 11:41:05;;;;;;;9.60;2.10;;;;;;;24.38;48.00;100381.09;7310441;19;129134;-39
2021/12/13 11:44:07;;;;;;;13.98;2.45;;;;;;;24.30;47.61;100367.81;7310940;19;129475;-39
2021/12/13 11:47:04;;;;;;;20.60;3.13;;;;;;;24.40;47.25;100379.16;7307758;19;130394;-35
2021/12/13 11:50:03;;;;;;;23.33;3.75;;;;;;;24.40;47.53;100384.41;7311464;19;129463;-37
2021/12/13 11:53:06;;;;;;;18.90;2.83;;;;;;;24.40;47.76;100379.16;7310532;19;129221;-36